createdAt,value
2023-04-18T00:01:33.912Z,12.32
2023-04-18T00:04:03.163Z,16.37
2023-04-18T00:06:31.290Z,17.98
2023-04-18T00:08:59.168Z,14.15
2023-04-18T00:11:28.407Z,19.02
2023-04-18T00:13:58.002Z,15.65
2023-04-18T00:16:25.710Z,17.60
2023-04-18T00:18:53.690Z,15.80
2023-04-18T00:21:23.360Z,15.52
2023-04-18T00:23:51.287Z,15.02
2023-04-18T00:26:18.875Z,16.63
2023-04-18T00:28:47.806Z,18.13
2023-04-18T00:31:16.116Z,18.13
2023-04-18T00:33:43.743Z,18.65
2023-04-18T00:36:11.371Z,17.30
2023-04-18T00:38:39.215Z,20.40
2023-04-18T00:41:06.763Z,19.23
2023-04-18T00:43:35.132Z,20.20
2023-04-18T00:46:04.257Z,20.70
2023-04-18T00:48:31.892Z,22.58
2023-04-18T00:51:00.519Z,17.90
2023-04-18T00:53:28.593Z,21.43
2023-04-18T00:55:56.271Z,20.40
2023-04-18T00:58:24.664Z,21.98
2023-04-18T01:00:53.997Z,19.23
2023-04-18T01:03:24.142Z,22.42
2023-04-18T01:05:52.477Z,24.57
2023-04-18T01:08:20.395Z,26.23
2023-04-18T01:10:48.128Z,23.92
2023-04-18T01:13:17.107Z,26.13
2023-04-18T01:15:45.179Z,24.27
2023-04-18T01:18:13.224Z,28.10
2023-04-18T01:20:45.832Z,30.55
2023-04-18T01:23:13.529Z,27.02
2023-04-18T01:25:42.684Z,27.90
2023-04-18T01:28:10.603Z,28.27
2023-04-18T01:30:38.237Z,31.33
2023-04-18T01:33:06.458Z,32.40
2023-04-18T01:35:34.408Z,28.35
2023-04-18T01:38:02.869Z,30.65
2023-04-18T01:40:30.911Z,26.92
2023-04-18T01:42:59.879Z,29.60
2023-04-18T01:45:27.582Z,26.10
2023-04-18T01:47:55.359Z,27.98
2023-04-18T01:50:23.529Z,29.65
2023-04-18T01:52:51.111Z,26.55
2023-04-18T01:55:19.883Z,27.87
2023-04-18T01:57:48.171Z,31.48
2023-04-18T02:00:17.631Z,30.92
2023-04-18T02:02:45.368Z,25.67
2023-04-18T02:05:13.184Z,30.42
2023-04-18T02:07:41.178Z,31.37
2023-04-18T02:10:09.866Z,29.52
2023-04-18T02:12:37.548Z,29.77
2023-04-18T02:15:05.625Z,29.17
2023-04-18T02:17:35.646Z,31.80
2023-04-18T02:20:04.394Z,28.63
2023-04-18T02:22:32.070Z,29.38
2023-04-18T02:24:59.640Z,30.45
2023-04-18T02:27:27.231Z,29.02
2023-04-18T02:29:54.802Z,28.33
2023-04-18T02:32:22.518Z,28.20
2023-04-18T02:34:51.877Z,26.77
2023-04-18T02:37:19.618Z,28.23
2023-04-18T02:39:47.248Z,28.02
2023-04-18T02:42:15.119Z,28.90
2023-04-18T02:44:42.851Z,27.10
2023-04-18T02:47:10.510Z,25.35
2023-04-18T02:49:38.123Z,29.15
2023-04-18T02:52:07.872Z,26.15
2023-04-18T02:54:35.680Z,27.40
2023-04-18T02:57:03.544Z,29.83
2023-04-18T02:59:31.209Z,33.85
2023-04-18T03:01:58.910Z,28.15
2023-04-18T03:04:26.819Z,26.33
2023-04-18T03:06:56.055Z,29.73
2023-04-18T03:09:25.831Z,30.57
2023-04-18T03:11:53.524Z,29.88
2023-04-18T03:14:21.120Z,29.90
2023-04-18T03:16:48.753Z,30.25
2023-04-18T03:19:17.147Z,33.15
2023-04-18T03:21:44.820Z,29.67
2023-04-18T03:24:12.534Z,29.85
2023-04-18T03:26:41.551Z,32.28
2023-04-18T03:29:09.357Z,28.88
2023-04-18T03:31:36.885Z,33.22
2023-04-18T03:34:04.577Z,27.47
2023-04-18T03:36:32.418Z,31.73
2023-04-18T03:39:00.263Z,30.15
2023-04-18T03:41:28.142Z,27.98
2023-04-18T03:43:57.198Z,27.85
2023-04-18T03:46:24.961Z,30.13
2023-04-18T03:48:52.664Z,32.75
2023-04-18T03:51:20.371Z,35.08
2023-04-18T03:53:47.874Z,29.00
2023-04-18T03:56:16.133Z,33.88
2023-04-18T03:58:43.919Z,31.77
2023-04-18T04:01:12.808Z,33.08
2023-04-18T04:03:40.657Z,30.48
2023-04-18T04:06:08.812Z,30.27
2023-04-18T04:08:36.359Z,30.02
2023-04-18T04:11:04.140Z,31.53
2023-04-18T04:13:31.867Z,32.03
2023-04-18T04:15:59.433Z,35.15
2023-04-18T04:18:31.198Z,31.08
2023-04-18T04:20:59.053Z,35.70
2023-04-18T04:23:26.826Z,28.17
2023-04-18T04:25:54.953Z,31.75
2023-04-18T04:28:22.765Z,36.78
2023-04-18T04:30:51.134Z,33.15
2023-04-18T04:33:19.359Z,35.10
2023-04-18T04:35:49.816Z,31.90
2023-04-18T04:38:20.029Z,31.38
2023-04-18T04:40:47.661Z,32.55
2023-04-18T04:43:15.937Z,34.67
2023-04-18T04:45:44.703Z,29.83
2023-04-18T04:48:12.353Z,33.93
2023-04-18T04:50:41.449Z,31.50
2023-04-18T04:53:12.348Z,37.25
2023-04-18T04:55:40.055Z,30.67
2023-04-18T04:58:07.677Z,32.15
2023-04-18T05:00:35.251Z,31.70
2023-04-18T05:03:03.577Z,30.55
2023-04-18T05:05:31.707Z,31.13
2023-04-18T05:07:59.459Z,28.30
2023-04-18T05:10:28.643Z,31.30
2023-04-18T05:12:56.560Z,27.13
2023-04-18T05:15:24.389Z,24.80
2023-04-18T05:17:52.250Z,26.92
2023-04-18T05:20:19.905Z,24.02
2023-04-18T05:22:47.499Z,29.05
2023-04-18T05:25:17.214Z,29.67
2023-04-18T05:27:46.266Z,25.45
2023-04-18T05:30:14.024Z,28.85
2023-04-18T05:32:41.930Z,26.85
2023-04-18T05:35:10.104Z,26.70
2023-04-18T05:37:37.738Z,23.83
2023-04-18T05:40:05.523Z,25.98
2023-04-18T05:42:33.358Z,23.75
2023-04-18T05:45:02.413Z,23.38
2023-04-18T05:47:30.399Z,22.13
2023-04-18T05:50:01.233Z,22.47
2023-04-18T05:52:28.835Z,25.85
2023-04-18T05:54:56.447Z,25.63
2023-04-18T05:57:24.130Z,26.23
2023-04-18T05:59:51.695Z,27.83
2023-04-18T06:02:21.108Z,26.77
2023-04-18T06:04:49.302Z,24.63
2023-04-18T06:07:17.243Z,28.02
2023-04-18T06:09:44.894Z,26.67
2023-04-18T06:12:12.879Z,30.75
2023-04-18T06:14:40.672Z,32.53
2023-04-18T06:17:10.092Z,28.80
2023-04-18T06:19:39.691Z,33.78
2023-04-18T06:22:07.292Z,24.50
2023-04-18T06:24:35.021Z,23.25
2023-04-18T06:27:03.172Z,23.37
2023-04-18T06:29:33.151Z,24.42
2023-04-18T06:32:01.004Z,23.92
2023-04-18T06:34:28.898Z,22.75
2023-04-18T06:36:57.839Z,27.50
2023-04-18T06:39:25.527Z,30.80
2023-04-18T06:41:55.001Z,25.02
2023-04-18T06:44:22.758Z,25.45
2023-04-18T06:46:51.167Z,27.65
2023-04-18T06:49:21.975Z,27.20
2023-04-18T06:51:52.875Z,26.57
2023-04-18T06:54:22.063Z,25.60
2023-04-18T06:56:49.627Z,24.52
2023-04-18T06:59:17.523Z,25.52
2023-04-18T07:01:45.201Z,21.25
2023-04-18T07:04:13.063Z,22.80
2023-04-18T07:06:41.129Z,23.00
2023-04-18T07:09:08.779Z,22.90
2023-04-18T07:11:39.606Z,24.17
2023-04-18T07:14:07.472Z,28.40
2023-04-18T07:16:35.506Z,22.60
2023-04-18T07:19:03.139Z,24.50
2023-04-18T07:21:31.208Z,26.58
2023-04-18T07:23:59.021Z,24.65
2023-04-18T07:26:27.566Z,25.85
2023-04-18T07:28:56.540Z,24.87
2023-04-18T07:31:26.181Z,27.40
2023-04-18T07:33:53.771Z,23.77
2023-04-18T07:36:21.514Z,25.60
2023-04-18T07:38:49.177Z,26.63
2023-04-18T07:41:17.282Z,27.57
2023-04-18T07:43:45.559Z,28.05
2023-04-18T07:46:19.122Z,27.48
2023-04-18T07:48:46.742Z,27.05
2023-04-18T07:51:14.538Z,27.33
2023-04-18T07:53:44.026Z,26.97
2023-04-18T07:56:12.498Z,29.40
2023-04-18T07:58:40.092Z,25.70
2023-04-18T08:01:09.059Z,25.90
2023-04-18T08:03:38.214Z,26.88
2023-04-18T08:06:06.669Z,26.10
2023-04-18T08:08:34.648Z,25.23
2023-04-18T08:11:02.462Z,25.23
2023-04-18T08:13:30.041Z,26.13
2023-04-18T08:15:59.819Z,24.13
2023-04-18T08:18:27.577Z,26.07
2023-04-18T08:20:56.570Z,25.10
2023-04-18T08:23:24.121Z,27.00
2023-04-18T08:25:52.007Z,26.75
2023-04-18T08:28:19.540Z,21.10
2023-04-18T08:30:49.218Z,23.23
2023-04-18T08:33:17.450Z,21.60
2023-04-18T08:35:45.187Z,20.75
2023-04-18T08:38:15.004Z,23.70
2023-04-18T08:40:43.995Z,20.73
2023-04-18T08:43:14.046Z,22.60
2023-04-18T08:45:42.268Z,21.75
2023-04-18T08:48:14.118Z,22.52
2023-04-18T08:50:43.042Z,16.33
2023-04-18T08:53:11.128Z,26.98
2023-04-18T08:55:40.538Z,20.83
2023-04-18T08:58:08.413Z,17.85
2023-04-18T09:00:36.264Z,18.55
2023-04-18T09:03:04.204Z,22.67
2023-04-18T09:05:31.969Z,17.80
2023-04-18T09:07:59.802Z,19.10
2023-04-18T09:10:28.737Z,17.05
2023-04-18T09:12:58.235Z,19.58
2023-04-18T09:15:29.281Z,18.27
2023-04-18T09:17:57.772Z,21.05
2023-04-18T09:20:35.918Z,18.20
2023-04-18T09:23:04.350Z,17.35
2023-04-18T09:28:04.790Z,19.05
2023-04-18T09:30:42.292Z,24.63
2023-04-18T09:33:11.030Z,19.37
2023-04-18T09:35:38.833Z,18.40
2023-04-18T09:38:07.070Z,11.52
2023-04-18T09:40:35.041Z,19.33
2023-04-18T09:43:18.018Z,18.73
2023-04-18T09:45:47.588Z,20.13
2023-04-18T09:48:15.167Z,17.75
2023-04-18T09:50:43.773Z,15.52
2023-04-18T09:53:14.236Z,17.17
2023-04-18T09:55:42.360Z,18.80
2023-04-18T09:58:12.006Z,17.83
2023-04-18T10:00:40.738Z,19.27
2023-04-18T10:03:09.835Z,19.17
2023-04-18T10:05:39.845Z,22.70
2023-04-18T10:08:08.373Z,17.40
2023-04-18T10:10:37.579Z,17.17
2023-04-18T10:13:08.441Z,15.75
2023-04-18T10:15:37.943Z,16.08
2023-04-18T10:18:10.629Z,21.45
2023-04-18T10:20:38.386Z,17.38
2023-04-18T10:23:29.776Z,18.00
2023-04-18T10:25:58.061Z,19.13
2023-04-18T10:28:27.686Z,15.88
2023-04-18T10:30:59.376Z,19.67
2023-04-18T10:33:31.883Z,16.50
2023-04-18T10:36:21.572Z,17.10
2023-04-18T10:38:50.630Z,16.73
2023-04-18T10:41:20.160Z,15.65
2023-04-18T10:44:08.054Z,16.33
2023-04-18T10:46:38.236Z,16.67
2023-04-18T10:49:16.661Z,16.20
2023-04-18T10:51:45.308Z,14.93
2023-04-18T10:54:14.430Z,14.57
2023-04-18T10:56:52.304Z,14.63
2023-04-18T10:59:23.494Z,14.98
2023-04-18T11:01:56.233Z,14.27
2023-04-18T11:04:24.977Z,16.65
2023-04-18T11:06:55.918Z,13.10
2023-04-18T11:09:23.692Z,15.52
2023-04-18T11:12:03.685Z,13.18
2023-04-18T11:14:40.179Z,14.50
2023-04-18T11:17:18.830Z,14.93
2023-04-18T11:19:48.491Z,13.27
2023-04-18T11:22:17.553Z,15.77
2023-04-18T11:24:45.282Z,12.88
2023-04-18T11:27:13.471Z,12.47
2023-04-18T11:29:40.999Z,11.57
2023-04-18T11:32:09.294Z,16.45
2023-04-18T11:34:39.425Z,11.85
2023-04-18T11:37:07.332Z,11.73
2023-04-18T11:39:35.294Z,13.13
2023-04-18T11:42:03.008Z,15.98
2023-04-18T11:44:30.849Z,12.00
2023-04-18T11:46:58.787Z,14.95
2023-04-18T11:49:27.251Z,15.82
2023-04-18T11:51:56.321Z,13.00
2023-04-18T11:54:36.671Z,10.98
2023-04-18T11:57:04.771Z,16.30
2023-04-18T11:59:32.617Z,14.88
2023-04-18T12:02:14.819Z,11.68
2023-04-18T12:04:53.877Z,13.67
2023-04-18T12:07:33.502Z,10.70
2023-04-18T12:10:01.053Z,9.93
2023-04-18T12:12:28.676Z,12.02
2023-04-18T12:15:00.271Z,13.18
2023-04-18T12:17:28.099Z,11.07
2023-04-18T12:19:55.673Z,14.00
2023-04-18T12:25:23.521Z,10.68
2023-04-18T12:27:56.574Z,9.80
2023-04-18T12:30:25.595Z,9.40
2023-04-18T12:32:54.119Z,11.25
2023-04-18T12:35:22.849Z,10.73
2023-04-18T12:37:51.315Z,10.57
2023-04-18T12:40:20.568Z,12.20
2023-04-18T12:42:48.537Z,11.80
2023-04-18T12:45:17.280Z,11.23
2023-04-18T12:47:45.802Z,9.50
2023-04-18T12:50:16.435Z,11.77
2023-04-18T12:52:44.831Z,10.95
2023-04-18T12:55:12.596Z,10.43
2023-04-18T12:57:42.036Z,11.07
2023-04-18T13:00:12.285Z,12.40
2023-04-18T13:02:40.928Z,10.30
2023-04-18T13:05:09.227Z,8.10
2023-04-18T13:07:37.851Z,9.50
2023-04-18T13:10:05.830Z,10.73
2023-04-18T13:12:33.494Z,8.90
2023-04-18T13:15:03.597Z,11.05
2023-04-18T13:17:31.349Z,12.75
2023-04-18T13:19:58.972Z,10.52
2023-04-18T13:22:28.461Z,10.02
2023-04-18T13:24:55.962Z,28.83
2023-04-18T13:27:23.714Z,12.48
2023-04-18T13:29:51.367Z,13.50
2023-04-18T13:32:20.481Z,9.30
2023-04-18T13:34:48.835Z,10.55
2023-04-18T13:37:17.214Z,10.40
2023-04-18T13:39:44.896Z,9.73
2023-04-18T13:42:14.064Z,10.48
2023-04-18T13:44:43.694Z,9.13
2023-04-18T13:47:11.286Z,10.13
2023-04-18T13:49:40.885Z,9.10
2023-04-18T13:52:08.631Z,8.88
2023-04-18T13:54:38.187Z,9.15
2023-04-18T13:57:11.375Z,9.27
2023-04-18T13:59:39.562Z,9.75
2023-04-18T14:02:08.163Z,9.83
2023-04-18T14:04:36.158Z,9.63
2023-04-18T14:07:06.226Z,11.63
2023-04-18T14:09:34.115Z,8.18
2023-04-18T14:12:02.227Z,12.02
2023-04-18T14:14:29.976Z,10.63
2023-04-18T14:16:58.347Z,8.02
2023-04-18T14:19:25.998Z,9.07
2023-04-18T14:21:53.591Z,9.90
2023-04-18T14:24:22.763Z,9.80
2023-04-18T14:26:50.652Z,12.27
2023-04-18T14:29:18.216Z,9.57
2023-04-18T14:31:46.088Z,10.55
2023-04-18T14:34:13.720Z,8.15
2023-04-18T14:36:41.490Z,15.43
2023-04-18T14:39:10.247Z,11.60
2023-04-18T14:41:39.290Z,8.40
2023-04-18T14:44:06.812Z,9.65
2023-04-18T14:46:34.540Z,11.98
2023-04-18T14:49:02.168Z,9.25
2023-04-18T14:51:29.971Z,9.53
2023-04-18T14:53:57.689Z,8.13
2023-04-18T14:56:25.322Z,6.97
2023-04-18T14:58:54.300Z,8.48
2023-04-18T15:01:22.329Z,8.10
2023-04-18T15:03:51.460Z,7.47
2023-04-18T15:06:19.168Z,9.95
2023-04-18T15:08:47.188Z,10.68
2023-04-18T15:11:14.965Z,8.15
2023-04-18T15:13:42.545Z,10.73
2023-04-18T15:16:12.579Z,10.80
2023-04-18T15:18:40.222Z,10.40
2023-04-18T15:21:07.859Z,8.40
2023-04-18T15:23:36.058Z,8.70
2023-04-18T15:26:03.793Z,10.32
2023-04-18T15:28:32.234Z,11.70
2023-04-18T15:31:00.011Z,7.88
2023-04-18T15:33:29.011Z,9.20
2023-04-18T15:35:56.750Z,8.93
2023-04-18T15:38:24.710Z,9.23
2023-04-18T15:40:53.367Z,10.07
2023-04-18T15:43:20.985Z,9.00
2023-04-18T15:45:48.967Z,9.80
2023-04-18T15:48:17.640Z,9.73
2023-04-18T15:50:51.098Z,8.13
2023-04-18T15:53:18.907Z,9.17
2023-04-18T15:55:47.463Z,9.35
2023-04-18T15:58:15.121Z,9.30
2023-04-18T16:00:44.041Z,10.80
2023-04-18T16:03:12.217Z,10.85
2023-04-18T16:05:39.974Z,8.53
2023-04-18T16:08:09.494Z,8.70
2023-04-18T16:10:37.174Z,12.43
2023-04-18T16:13:06.270Z,9.63
2023-04-18T16:15:35.613Z,10.05
2023-04-18T16:18:03.251Z,10.13
2023-04-18T16:20:33.237Z,8.77
2023-04-18T16:23:01.387Z,7.90
2023-04-18T16:25:30.705Z,9.38
2023-04-18T16:27:58.608Z,10.65
2023-04-18T16:30:26.208Z,11.03
2023-04-18T16:32:54.284Z,10.35
2023-04-18T16:35:21.976Z,10.55
2023-04-18T16:37:49.616Z,8.38
2023-04-18T16:40:22.156Z,8.27
2023-04-18T16:42:52.832Z,9.03
2023-04-18T16:45:20.733Z,8.18
2023-04-18T16:47:48.298Z,8.38
2023-04-18T16:50:16.410Z,7.75
2023-04-18T16:52:44.240Z,6.13
2023-04-18T16:55:12.578Z,9.43
2023-04-18T16:57:40.533Z,7.68
2023-04-18T17:00:13.482Z,8.02
2023-04-18T17:02:43.479Z,7.93
2023-04-18T17:05:11.269Z,8.82
2023-04-18T17:07:38.808Z,7.40
2023-04-18T17:10:08.803Z,9.60
2023-04-18T17:12:37.565Z,8.70
2023-04-18T17:15:05.800Z,8.07
2023-04-18T17:17:36.962Z,9.80
2023-04-18T17:20:07.285Z,9.33
2023-04-18T17:22:35.733Z,9.75
2023-04-18T17:25:04.064Z,9.80
2023-04-18T17:27:31.854Z,10.20
2023-04-18T17:29:59.470Z,10.35
2023-04-18T17:32:27.224Z,10.00
2023-04-18T17:34:56.443Z,9.70
2023-04-18T17:37:24.020Z,8.50
2023-04-18T17:39:51.584Z,11.07
2023-04-18T17:42:19.822Z,8.45
2023-04-18T17:44:47.382Z,8.73
2023-04-18T17:47:15.196Z,11.70
2023-04-18T17:49:42.826Z,9.30
2023-04-18T17:52:11.852Z,10.57
2023-04-18T17:54:39.501Z,9.95
2023-04-18T17:57:07.344Z,8.27
2023-04-18T17:59:37.612Z,9.18
2023-04-18T18:02:05.519Z,8.98
2023-04-18T18:04:35.229Z,10.98
2023-04-18T18:07:02.941Z,9.40
2023-04-18T18:09:32.038Z,10.70
2023-04-18T18:11:59.671Z,9.30
2023-04-18T18:14:27.819Z,12.68
2023-04-18T18:16:56.129Z,8.10
2023-04-18T18:19:23.827Z,9.70
2023-04-18T18:21:51.457Z,9.77
2023-04-18T18:24:20.251Z,8.18
2023-04-18T18:26:51.556Z,7.40
2023-04-18T18:29:19.910Z,10.88
2023-04-18T18:31:47.777Z,10.15
2023-04-18T18:34:16.869Z,9.60
2023-04-18T18:36:44.406Z,9.20
2023-04-18T18:39:14.504Z,9.52
2023-04-18T18:41:42.836Z,8.13
2023-04-18T18:44:11.849Z,7.22
2023-04-18T18:46:40.028Z,8.73
2023-04-18T18:49:09.313Z,10.23
2023-04-18T18:51:38.110Z,9.15
2023-04-18T18:54:05.860Z,9.80
2023-04-18T18:56:34.738Z,7.68
2023-04-18T18:59:02.351Z,8.27
2023-04-18T19:01:31.880Z,10.25
2023-04-18T19:03:59.941Z,9.18
2023-04-18T19:06:27.994Z,10.63
2023-04-18T19:08:55.548Z,11.23
2023-04-18T19:11:23.095Z,9.30
2023-04-18T19:13:52.028Z,8.07
2023-04-18T19:16:19.681Z,8.43
2023-04-18T19:18:50.572Z,8.18
2023-04-18T19:21:20.263Z,7.45
2023-04-18T19:23:47.851Z,10.17
2023-04-18T19:26:16.083Z,9.90
2023-04-18T19:28:45.338Z,6.32
2023-04-18T19:31:12.927Z,7.63
2023-04-18T19:33:40.644Z,11.70
2023-04-18T19:36:10.065Z,12.97
2023-04-18T19:38:39.200Z,12.25
2023-04-18T19:41:07.582Z,7.70
2023-04-18T19:43:38.682Z,7.45
2023-04-18T19:46:06.299Z,9.30
2023-04-18T19:48:33.902Z,9.83
2023-04-18T19:51:01.610Z,11.68
2023-04-18T19:53:30.623Z,8.75
2023-04-18T19:55:58.513Z,9.20
2023-04-18T19:58:35.880Z,8.70
2023-04-18T20:01:05.839Z,8.07
2023-04-18T20:03:34.317Z,7.65
2023-04-18T20:06:02.511Z,8.80
2023-04-18T20:08:31.501Z,9.80
2023-04-18T20:10:59.352Z,7.10
2023-04-18T20:13:27.511Z,11.67
2023-04-18T20:15:57.368Z,10.43
2023-04-18T20:18:25.401Z,10.93
2023-04-18T20:20:53.190Z,12.43
2023-04-18T20:23:21.192Z,10.52
2023-04-18T20:25:50.392Z,9.90
2023-04-18T20:28:18.198Z,11.43
2023-04-18T20:30:45.975Z,12.80
2023-04-18T20:33:13.584Z,9.45
2023-04-18T20:35:41.717Z,10.60
2023-04-18T20:38:11.115Z,9.87
2023-04-18T20:40:39.144Z,9.98
2023-04-18T20:43:08.193Z,11.15
2023-04-18T20:45:37.432Z,10.25
2023-04-18T20:48:05.447Z,12.77
2023-04-18T20:50:33.097Z,10.93
2023-04-18T20:53:02.214Z,11.43
2023-04-18T20:55:30.525Z,10.38
2023-04-18T20:57:58.650Z,10.68
2023-04-18T21:00:27.958Z,10.20
2023-04-18T21:02:55.770Z,10.73
2023-04-18T21:05:23.533Z,11.98
2023-04-18T21:07:51.315Z,11.50
2023-04-18T21:10:18.992Z,10.15
2023-04-18T21:12:46.818Z,10.63
2023-04-18T21:15:14.693Z,11.00
2023-04-18T21:17:44.255Z,11.10
2023-04-18T21:20:12.196Z,8.70
2023-04-18T21:22:39.979Z,10.45
2023-04-18T21:25:08.589Z,11.68
2023-04-18T21:27:36.162Z,8.67
2023-04-18T21:30:05.102Z,10.73
2023-04-18T21:32:32.838Z,9.05
2023-04-18T21:35:03.036Z,10.18
2023-04-18T21:37:31.340Z,14.05
2023-04-18T21:39:59.069Z,11.17
2023-04-18T21:42:27.010Z,10.18
2023-04-18T21:44:56.043Z,14.07
2023-04-18T21:47:23.713Z,11.27
2023-04-18T21:49:51.594Z,11.50
2023-04-18T21:52:20.760Z,13.97
2023-04-18T21:57:34.858Z,13.13
2023-04-18T22:00:02.388Z,10.35
2023-04-18T22:02:30.264Z,10.18
2023-04-18T22:04:58.287Z,10.60
2023-04-18T22:07:27.264Z,14.75
2023-04-18T22:09:54.849Z,12.30
2023-04-18T22:12:22.902Z,11.05
2023-04-18T22:14:52.793Z,11.38
2023-04-18T22:17:22.305Z,10.63
2023-04-18T22:19:51.015Z,10.43
2023-04-18T22:22:18.755Z,10.98
2023-04-18T22:24:47.962Z,12.05
2023-04-18T22:27:16.460Z,13.20
2023-04-18T22:29:44.085Z,12.20
2023-04-18T22:32:12.063Z,10.95
2023-04-18T22:34:39.854Z,9.88
2023-04-18T22:37:07.409Z,11.10
2023-04-18T22:39:35.211Z,11.27
2023-04-18T22:42:04.367Z,11.57
2023-04-18T22:44:31.902Z,12.60
2023-04-18T22:46:59.422Z,11.38
2023-04-18T22:49:27.778Z,16.83
2023-04-18T22:51:55.342Z,12.70
2023-04-18T22:54:23.086Z,13.80
2023-04-18T22:56:50.979Z,11.23
2023-04-18T22:59:20.915Z,13.75
2023-04-18T23:01:48.472Z,13.13
2023-04-18T23:04:16.665Z,12.77
2023-04-18T23:06:44.706Z,12.13
2023-04-18T23:09:12.222Z,12.85
2023-04-18T23:11:40.091Z,10.18
2023-04-18T23:14:08.561Z,12.95
2023-04-18T23:16:37.389Z,15.43
2023-04-18T23:19:05.582Z,13.10
2023-04-18T23:21:33.131Z,13.65
2023-04-18T23:24:00.900Z,14.98
2023-04-18T23:26:28.641Z,17.70
2023-04-18T23:28:56.366Z,13.30
2023-04-18T23:31:23.919Z,14.17
2023-04-18T23:33:53.116Z,15.20
2023-04-18T23:36:20.644Z,14.93
2023-04-18T23:38:48.246Z,14.57
2023-04-18T23:41:16.273Z,14.45
2023-04-18T23:43:44.547Z,13.47
2023-04-18T23:46:13.303Z,16.30
2023-04-18T23:48:45.612Z,14.77
2023-04-18T23:51:15.155Z,14.43
2023-04-18T23:53:42.688Z,14.95
2023-04-18T23:56:10.485Z,14.47
2023-04-18T23:58:38.017Z,17.17
